Time,TemperatureF,DewpointF,PressureIn,WindDirection,WindDirectionDegrees,WindSpeedMPH,WindSpeedGustMPH,Humidity,HourlyPrecipIn,Conditions,Clouds,dailyrainin,SolarRadiationWatts/m^2,SoftwareType,DateUTC
2013-05-14 00:13:00,49.0,39.0,30.48,NE,34,3.0,7.0,68,0.00,,,0.00,0.000000,,2013-05-14 04:13:00,
2013-05-14 00:23:00,49.0,39.0,30.48,NE,34,3.0,7.0,68,0.00,,,0.00,0.000000,,2013-05-14 04:23:00,
2013-05-14 00:32:00,49.0,39.0,30.48,NE,34,3.0,7.0,68,0.00,,,0.00,0.000000,,2013-05-14 04:32:00,
2013-05-14 00:43:00,49.0,39.0,30.48,NE,34,3.0,7.0,68,0.00,,,0.00,0.000000,,2013-05-14 04:43:00,
2013-05-14 01:12:00,50.0,41.0,30.49,NE,44,5.0,12.0,72,0.00,,,0.00,0.000000,,2013-05-14 05:12:00,
2013-05-14 01:22:00,50.0,41.0,30.49,NE,44,5.0,12.0,72,0.00,,,0.00,0.000000,,2013-05-14 05:22:00,
2013-05-14 01:32:00,50.0,41.0,30.49,NE,44,5.0,12.0,72,0.00,,,0.00,0.000000,,2013-05-14 05:32:00,
2013-05-14 01:42:00,50.0,41.0,30.49,NE,44,5.0,12.0,72,0.00,,,0.00,0.000000,,2013-05-14 05:42:00,
2013-05-14 02:13:00,48.0,39.0,30.50,NE,50,5.0,11.0,72,0.00,,,0.00,0.000000,,2013-05-14 06:13:00,
2013-05-14 02:22:00,48.0,39.0,30.50,NE,50,5.0,11.0,72,0.00,,,0.00,0.000000,,2013-05-14 06:22:00,
2013-05-14 02:32:00,48.0,39.0,30.50,NE,50,5.0,11.0,72,0.00,,,0.00,0.000000,,2013-05-14 06:32:00,
2013-05-14 02:42:00,48.0,39.0,30.50,NE,50,5.0,11.0,72,0.00,,,0.00,0.000000,,2013-05-14 06:42:00,
2013-05-14 03:11:00,47.0,37.0,30.50,ENE,57,5.0,10.0,68,0.00,,,0.00,0.000000,,2013-05-14 07:11:00,
2013-05-14 03:22:00,47.0,37.0,30.50,ENE,57,5.0,10.0,68,0.00,,,0.00,0.000000,,2013-05-14 07:22:00,
2013-05-14 03:32:00,47.0,37.0,30.50,ENE,57,5.0,10.0,68,0.00,,,0.00,0.000000,,2013-05-14 07:32:00,
2013-05-14 03:42:00,47.0,37.0,30.50,ENE,57,5.0,10.0,68,0.00,,,0.00,0.000000,,2013-05-14 07:42:00,
2013-05-14 04:11:00,45.0,36.0,30.51,NE,44,4.0,10.0,71,0.00,,,0.00,0.000000,,2013-05-14 08:11:00,
2013-05-14 04:21:00,45.0,36.0,30.51,NE,44,4.0,10.0,71,0.00,,,0.00,0.000000,,2013-05-14 08:21:00,
2013-05-14 04:32:00,45.0,36.0,30.51,NE,44,4.0,10.0,71,0.00,,,0.00,0.000000,,2013-05-14 08:32:00,
2013-05-14 04:42:00,45.0,36.0,30.51,NE,44,4.0,10.0,71,0.00,,,0.00,0.000000,,2013-05-14 08:42:00,
2013-05-14 05:11:00,45.0,38.0,30.52,ENE,57,4.0,9.0,76,0.00,,,0.00,0.000000,,2013-05-14 09:11:00,
2013-05-14 05:22:00,45.0,38.0,30.52,ENE,57,4.0,9.0,76,0.00,,,0.00,0.000000,,2013-05-14 09:22:00,
2013-05-14 05:32:00,45.0,38.0,30.52,ENE,57,4.0,9.0,76,0.00,,,0.00,0.000000,,2013-05-14 09:32:00,
2013-05-14 05:44:00,45.0,38.0,30.52,ENE,57,4.0,9.0,76,0.00,,,0.00,0.000000,,2013-05-14 09:44:00,
2013-05-14 06:14:00,42.0,36.0,30.52,ENE,60,3.0,8.0,79,0.00,,,0.00,0.000000,,2013-05-14 10:14:00,
2013-05-14 06:25:00,42.0,36.0,30.52,ENE,60,3.0,8.0,79,0.00,,,0.00,0.000000,,2013-05-14 10:25:00,
2013-05-14 06:33:00,42.0,36.0,30.52,ENE,60,3.0,8.0,79,0.00,,,0.00,0.000000,,2013-05-14 10:33:00,
2013-05-14 06:42:00,42.0,36.0,30.52,ENE,60,3.0,8.0,79,0.00,,,0.00,0.000000,,2013-05-14 10:42:00,
2013-05-14 07:11:00,41.0,36.0,30.54,NE,45,5.0,7.0,83,0.00,,,0.00,4.000000,,2013-05-14 11:11:00,
2013-05-14 07:22:00,41.0,36.0,30.54,NE,45,5.0,7.0,83,0.00,,,0.00,4.000000,,2013-05-14 11:22:00,
2013-05-14 07:32:00,41.0,36.0,30.54,NE,45,5.0,7.0,83,0.00,,,0.00,4.000000,,2013-05-14 11:32:00,
2013-05-14 07:43:00,41.0,36.0,30.54,NE,45,5.0,7.0,83,0.00,,,0.00,4.000000,,2013-05-14 11:43:00,
2013-05-14 08:12:00,46.0,40.0,30.56,NE,48,3.0,7.0,79,0.00,,,0.00,52.000000,,2013-05-14 12:12:00,
2013-05-14 08:21:00,46.0,40.0,30.56,NE,48,3.0,7.0,79,0.00,,,0.00,52.000000,,2013-05-14 12:21:00,
2013-05-14 08:32:00,46.0,40.0,30.56,NE,48,3.0,7.0,79,0.00,,,0.00,52.000000,,2013-05-14 12:32:00,
2013-05-14 08:42:00,46.0,40.0,30.56,NE,48,3.0,7.0,79,0.00,,,0.00,52.000000,,2013-05-14 12:42:00,
2013-05-14 09:11:00,52.0,39.0,30.57,SSE,151,2.0,7.0,61,0.00,,,0.00,69.000000,,2013-05-14 13:11:00,
2013-05-14 09:22:00,52.0,39.0,30.57,SSE,151,2.0,7.0,61,0.00,,,0.00,69.000000,,2013-05-14 13:22:00,
2013-05-14 09:32:00,52.0,39.0,30.57,SSE,151,2.0,7.0,61,0.00,,,0.00,69.000000,,2013-05-14 13:32:00,
2013-05-14 09:42:00,52.0,39.0,30.57,SSE,151,2.0,7.0,61,0.00,,,0.00,69.000000,,2013-05-14 13:42:00,
2013-05-14 10:11:00,65.0,34.0,30.56,SE,135,6.0,11.0,32,0.00,,,0.00,580.000000,,2013-05-14 14:11:00,
2013-05-14 10:22:00,65.0,34.0,30.56,SE,135,6.0,11.0,32,0.00,,,0.00,580.000000,,2013-05-14 14:22:00,
2013-05-14 10:42:00,65.0,34.0,30.56,SE,135,6.0,11.0,32,0.00,,,0.00,580.000000,,2013-05-14 14:42:00,
2013-05-14 11:12:00,69.0,32.0,30.57,SSW,192,3.0,13.0,25,0.00,,,0.00,880.000000,,2013-05-14 15:12:00,
2013-05-14 11:22:00,69.0,32.0,30.57,SSW,192,3.0,13.0,25,0.00,,,0.00,880.000000,,2013-05-14 15:22:00,
2013-05-14 11:43:00,69.0,32.0,30.57,SSW,192,3.0,13.0,25,0.00,,,0.00,880.000000,,2013-05-14 15:43:00,
2013-05-14 12:12:00,71.0,30.0,30.57,NNE,19,6.0,10.0,22,0.00,,,0.00,1059.000000,,2013-05-14 16:12:00,
2013-05-14 12:23:00,71.0,30.0,30.57,NNE,19,6.0,10.0,22,0.00,,,0.00,1059.000000,,2013-05-14 16:23:00,
2013-05-14 12:44:00,71.0,30.0,30.57,NNE,19,6.0,10.0,22,0.00,,,0.00,1059.000000,,2013-05-14 16:44:00,
2013-05-14 13:13:00,69.0,29.0,30.56,WNW,292,5.0,13.0,22,0.00,,,0.00,1170.000000,,2013-05-14 17:13:00,
2013-05-14 13:24:00,69.0,29.0,30.56,WNW,292,5.0,13.0,22,0.00,,,0.00,1170.000000,,2013-05-14 17:24:00,
2013-05-14 13:33:00,69.0,29.0,30.56,WNW,292,5.0,13.0,22,0.00,,,0.00,1170.000000,,2013-05-14 17:33:00,
2013-05-14 13:43:00,69.0,29.0,30.56,WNW,292,5.0,13.0,22,0.00,,,0.00,1170.000000,,2013-05-14 17:43:00,
2013-05-14 14:12:00,74.0,32.0,30.52,NNW,331,4.0,14.0,21,0.00,,,0.00,1209.000000,,2013-05-14 18:12:00,
2013-05-14 14:22:00,74.0,32.0,30.52,NNW,331,4.0,14.0,21,0.00,,,0.00,1209.000000,,2013-05-14 18:22:00,
2013-05-14 14:32:00,74.0,32.0,30.52,NNW,331,4.0,14.0,21,0.00,,,0.00,1209.000000,,2013-05-14 18:32:00,
2013-05-14 14:42:00,74.0,32.0,30.52,NNW,331,4.0,14.0,21,0.00,,,0.00,1209.000000,,2013-05-14 18:42:00,
2013-05-14 15:12:00,74.0,30.0,30.51,SW,233,6.0,18.0,20,0.00,,,0.00,1181.000000,,2013-05-14 19:12:00,
2013-05-14 15:22:00,74.0,30.0,30.51,SW,233,6.0,18.0,20,0.00,,,0.00,1181.000000,,2013-05-14 19:22:00,
2013-05-14 15:32:00,74.0,30.0,30.51,SW,233,6.0,18.0,20,0.00,,,0.00,1181.000000,,2013-05-14 19:32:00,
2013-05-14 15:42:00,74.0,30.0,30.51,SW,233,6.0,18.0,20,0.00,,,0.00,1181.000000,,2013-05-14 19:42:00,
2013-05-14 16:11:00,73.0,32.0,30.47,WSW,239,7.0,16.0,22,0.00,,,0.00,1070.000000,,2013-05-14 20:11:00,
2013-05-14 16:23:00,73.0,32.0,30.47,WSW,239,7.0,16.0,22,0.00,,,0.00,1070.000000,,2013-05-14 20:23:00,
2013-05-14 16:33:00,73.0,32.0,30.47,WSW,239,7.0,16.0,22,0.00,,,0.00,1070.000000,,2013-05-14 20:33:00,
2013-05-14 16:44:00,73.0,32.0,30.47,WSW,239,7.0,16.0,22,0.00,,,0.00,1070.000000,,2013-05-14 20:44:00,
2013-05-14 17:12:00,76.0,31.0,30.45,NNE,12,7.0,17.0,19,0.00,,,0.00,895.000000,,2013-05-14 21:12:00,
2013-05-14 17:23:00,76.0,31.0,30.45,NNE,12,7.0,17.0,19,0.00,,,0.00,895.000000,,2013-05-14 21:23:00,
2013-05-14 17:34:00,76.0,31.0,30.45,NNE,12,7.0,17.0,19,0.00,,,0.00,895.000000,,2013-05-14 21:34:00,
2013-05-14 17:43:00,76.0,31.0,30.45,NNE,12,7.0,17.0,19,0.00,,,0.00,895.000000,,2013-05-14 21:43:00,
2013-05-14 17:45:00,77.0,33.0,30.45,West,270,5.0,15.0,20,0.00,,,0.00,657.000000,,2013-05-14 21:45:00,
2013-05-14 18:13:00,77.0,33.0,30.45,West,270,5.0,15.0,20,0.00,,,0.00,657.000000,,2013-05-14 22:13:00,
2013-05-14 18:24:00,77.0,33.0,30.45,West,270,5.0,15.0,20,0.00,,,0.00,657.000000,,2013-05-14 22:24:00,
2013-05-14 18:34:00,77.0,33.0,30.45,West,270,5.0,15.0,20,0.00,,,0.00,657.000000,,2013-05-14 22:34:00,
2013-05-14 19:12:00,76.0,33.0,30.45,SW,236,8.0,16.0,21,0.00,,,0.00,422.000000,,2013-05-14 23:12:00,
2013-05-14 19:22:00,76.0,33.0,30.45,SW,236,8.0,16.0,21,0.00,,,0.00,422.000000,,2013-05-14 23:22:00,
2013-05-14 19:32:00,76.0,33.0,30.45,SW,236,8.0,16.0,21,0.00,,,0.00,422.000000,,2013-05-14 23:32:00,
2013-05-14 19:44:00,76.0,33.0,30.45,SW,236,8.0,16.0,21,0.00,,,0.00,422.000000,,2013-05-14 23:44:00,
2013-05-14 20:11:00,72.0,35.0,30.44,WSW,243,6.0,15.0,26,0.00,,,0.00,177.000000,,2013-05-15 00:11:00,
2013-05-14 20:21:00,72.0,35.0,30.44,WSW,243,6.0,15.0,26,0.00,,,0.00,177.000000,,2013-05-15 00:21:00,
2013-05-14 20:32:00,72.0,35.0,30.44,WSW,243,6.0,15.0,26,0.00,,,0.00,177.000000,,2013-05-15 00:32:00,
2013-05-14 20:42:00,72.0,35.0,30.44,WSW,243,6.0,15.0,26,0.00,,,0.00,177.000000,,2013-05-15 00:42:00,
2013-05-14 21:12:00,63.0,38.0,30.42,SW,217,5.0,12.0,40,0.00,,,0.00,8.000000,,2013-05-15 01:12:00,
2013-05-14 21:22:00,63.0,38.0,30.42,SW,217,5.0,12.0,40,0.00,,,0.00,8.000000,,2013-05-15 01:22:00,
2013-05-14 21:32:00,63.0,38.0,30.42,SW,217,5.0,12.0,40,0.00,,,0.00,8.000000,,2013-05-15 01:32:00,
2013-05-14 21:42:00,63.0,38.0,30.42,SW,217,5.0,12.0,40,0.00,,,0.00,8.000000,,2013-05-15 01:42:00,
2013-05-14 22:11:00,61.0,40.0,30.43,South,184,4.0,8.0,46,0.00,,,0.00,0.000000,,2013-05-15 02:11:00,
2013-05-14 22:22:00,61.0,40.0,30.43,South,184,4.0,8.0,46,0.00,,,0.00,0.000000,,2013-05-15 02:22:00,
2013-05-14 22:32:00,61.0,40.0,30.43,South,184,4.0,8.0,46,0.00,,,0.00,0.000000,,2013-05-15 02:32:00,
2013-05-14 22:42:00,61.0,40.0,30.43,South,184,4.0,8.0,46,0.00,,,0.00,0.000000,,2013-05-15 02:42:00,
2013-05-14 23:13:00,59.0,40.0,30.43,SSW,199,5.0,11.0,49,0.00,,,0.00,0.000000,,2013-05-15 03:13:00,
2013-05-14 23:22:00,59.0,40.0,30.43,SSW,199,5.0,11.0,49,0.00,,,0.00,0.000000,,2013-05-15 03:22:00,
2013-05-14 23:33:00,59.0,40.0,30.43,SSW,199,5.0,11.0,49,0.00,,,0.00,0.000000,,2013-05-15 03:33:00,
2013-05-14 23:44:00,59.0,40.0,30.43,SSW,199,5.0,11.0,49,0.00,,,0.00,0.000000,,2013-05-15 03:44:00,